sensor_id;sensor_type;location;lat;lon;timestamp;pressure;altitude;pressure_sealevel;temperature
27986;BMP280;15453;53.692;10.168;2023-01-28T00:01:36;102604.28;;;6.26
27986;BMP280;15453;53.692;10.168;2023-01-28T00:04:01;102606.19;;;6.26
27986;BMP280;15453;53.692;10.168;2023-01-28T00:06:26;102601.38;;;6.28
27986;BMP280;15453;53.692;10.168;2023-01-28T00:08:52;102601.38;;;6.28
27986;BMP280;15453;53.692;10.168;2023-01-28T00:11:18;102599.22;;;6.23
27986;BMP280;15453;53.692;10.168;2023-01-28T00:13:49;102598.19;;;6.24
27986;BMP280;15453;53.692;10.168;2023-01-28T00:16:15;102601.06;;;6.22
27986;BMP280;15453;53.692;10.168;2023-01-28T00:18:41;102606.53;;;6.22
27986;BMP280;15453;53.692;10.168;2023-01-28T00:21:11;102602.94;;;6.22
27986;BMP280;15453;53.692;10.168;2023-01-28T00:23:37;102608.38;;;6.22
27986;BMP280;15453;53.692;10.168;2023-01-28T00:26:05;102612.81;;;6.23
27986;BMP280;15453;53.692;10.168;2023-01-28T00:28:31;102607.72;;;6.20
27986;BMP280;15453;53.692;10.168;2023-01-28T00:30:56;102612.31;;;6.19
27986;BMP280;15453;53.692;10.168;2023-01-28T00:33:22;102607.72;;;6.20
27986;BMP280;15453;53.692;10.168;2023-01-28T00:35:56;102607.72;;;6.20
27986;BMP280;15453;53.692;10.168;2023-01-28T00:38:21;102605.81;;;6.20
27986;BMP280;15453;53.692;10.168;2023-01-28T00:40:46;102600.59;;;6.19
27986;BMP280;15453;53.692;10.168;2023-01-28T00:43:12;102607.88;;;6.18
27986;BMP280;15453;53.692;10.168;2023-01-28T00:45:37;102605.19;;;6.18
27986;BMP280;15453;53.692;10.168;2023-01-28T00:48:03;102611.66;;;6.18
27986;BMP280;15453;53.692;10.168;2023-01-28T00:50:28;102599.72;;;6.18
27986;BMP280;15453;53.692;10.168;2023-01-28T00:52:54;102606.22;;;6.18
27986;BMP280;15453;53.692;10.168;2023-01-28T00:55:19;102598.88;;;6.18
27986;BMP280;15453;53.692;10.168;2023-01-28T00:57:45;102600.75;;;6.18
27986;BMP280;15453;53.692;10.168;2023-01-28T01:00:11;102595.97;;;6.19
27986;BMP280;15453;53.692;10.168;2023-01-28T01:02:36;102598.34;;;6.22
27986;BMP280;15453;53.692;10.168;2023-01-28T01:05:01;102598.34;;;6.22
27986;BMP280;15453;53.692;10.168;2023-01-28T01:07:28;102596.84;;;6.20
27986;BMP280;15453;53.692;10.168;2023-01-28T01:10:01;102603.09;;;6.20
27986;BMP280;15453;53.692;10.168;2023-01-28T01:12:27;102607.56;;;6.22
27986;BMP280;15453;53.692;10.168;2023-01-28T01:14:52;102604.84;;;6.22
27986;BMP280;15453;53.692;10.168;2023-01-28T01:17:18;102606.69;;;6.21
27986;BMP280;15453;53.692;10.168;2023-01-28T01:19:45;102608.56;;;6.20
27986;BMP280;15453;53.692;10.168;2023-01-28T01:22:10;102608.22;;;6.23
27986;BMP280;15453;53.692;10.168;2023-01-28T01:24:35;102608.22;;;6.23
27986;BMP280;15453;53.692;10.168;2023-01-28T01:27:00;102601.25;;;6.21
27986;BMP280;15453;53.692;10.168;2023-01-28T01:29:26;102594.13;;;6.20
27986;BMP280;15453;53.692;10.168;2023-01-28T01:31:51;102602.28;;;6.20
27986;BMP280;15453;53.692;10.168;2023-01-28T01:34:16;102595.97;;;6.19
27986;BMP280;15453;53.692;10.168;2023-01-28T01:36:41;102602.44;;;6.18
27986;BMP280;15453;53.692;10.168;2023-01-28T01:39:11;102600.59;;;6.19
27986;BMP280;15453;53.692;10.168;2023-01-28T01:41:37;102596.16;;;6.18
27986;BMP280;15453;53.692;10.168;2023-01-28T01:44:04;102593.25;;;6.19
27986;BMP280;15453;53.692;10.168;2023-01-28T01:46:48;102594.28;;;6.18
27986;BMP280;15453;53.692;10.168;2023-01-28T01:49:20;102598.88;;;6.18
27986;BMP280;15453;53.692;10.168;2023-01-28T01:51:50;102603.47;;;6.18
27986;BMP280;15453;53.692;10.168;2023-01-28T01:54:19;102603.47;;;6.18
27986;BMP280;15453;53.692;10.168;2023-01-28T01:56:47;102600.06;;;6.15
27986;BMP280;15453;53.692;10.168;2023-01-28T01:59:17;102594.81;;;6.14
27986;BMP280;15453;53.692;10.168;2023-01-28T02:01:44;102589.34;;;6.14
27986;BMP280;15453;53.692;10.168;2023-01-28T02:04:20;102603.81;;;6.14
27986;BMP280;15453;53.692;10.168;2023-01-28T02:06:47;102603.81;;;6.14
27986;BMP280;15453;53.692;10.168;2023-01-28T02:09:26;102597.72;;;6.13
27986;BMP280;15453;53.692;10.168;2023-01-28T02:11:58;102600.63;;;6.11
27986;BMP280;15453;53.692;10.168;2023-01-28T02:14:26;102591.75;;;6.09
27986;BMP280;15453;53.692;10.168;2023-01-28T02:16:52;102600.63;;;6.11
27986;BMP280;15453;53.692;10.168;2023-01-28T02:19:18;102597.22;;;6.09
27986;BMP280;15453;53.692;10.168;2023-01-28T02:22:25;102590.06;;;6.08
27986;BMP280;15453;53.692;10.168;2023-01-28T02:28:19;102594.00;;;6.05
27986;BMP280;15453;53.692;10.168;2023-01-28T02:31:08;102589.22;;;6.07
27986;BMP280;15453;53.692;10.168;2023-01-28T02:33:55;102589.22;;;6.07
27986;BMP280;15453;53.692;10.168;2023-01-28T02:36:29;102583.13;;;6.05
27986;BMP280;15453;53.692;10.168;2023-01-28T02:39:01;102579.53;;;6.05
27986;BMP280;15453;53.692;10.168;2023-01-28T02:41:39;102584.16;;;6.04
27986;BMP280;15453;53.692;10.168;2023-01-28T02:44:07;102581.59;;;6.03
27986;BMP280;15453;53.692;10.168;2023-01-28T02:46:34;102589.75;;;6.03
27986;BMP280;15453;53.692;10.168;2023-01-28T02:49:29;102590.78;;;6.02
27986;BMP280;15453;53.692;10.168;2023-01-28T02:55:19;102593.69;;;6.00
27986;BMP280;15453;53.692;10.168;2023-01-28T02:57:59;102593.69;;;6.00
27986;BMP280;15453;53.692;10.168;2023-01-28T03:03:15;102588.59;;;5.97
27986;BMP280;15453;53.692;10.168;2023-01-28T03:05:51;102585.88;;;5.97
27986;BMP280;15453;53.692;10.168;2023-01-28T03:08:41;102582.28;;;5.97
27986;BMP280;15453;53.692;10.168;2023-01-28T03:11:27;102583.31;;;5.96
27986;BMP280;15453;53.692;10.168;2023-01-28T03:14:13;102579.56;;;5.97
27986;BMP280;15453;53.692;10.168;2023-01-28T03:16:59;102578.56;;;5.98
27986;BMP280;15453;53.692;10.168;2023-01-28T03:19:43;102588.75;;;5.96
27986;BMP280;15453;53.692;10.168;2023-01-28T03:22:27;102573.47;;;5.95
27986;BMP280;15453;53.692;10.168;2023-01-28T03:25:17;102571.56;;;5.95
27986;BMP280;15453;53.692;10.168;2023-01-28T03:28:04;102564.63;;;5.93
27986;BMP280;15453;53.692;10.168;2023-01-28T03:31:08;102567.16;;;5.94
27986;BMP280;15453;53.692;10.168;2023-01-28T03:33:54;102580.09;;;5.92
27986;BMP280;15453;53.692;10.168;2023-01-28T03:36:39;102578.91;;;5.95
27986;BMP280;15453;53.692;10.168;2023-01-28T03:39:25;102583.47;;;5.94
27986;BMP280;15453;53.692;10.168;2023-01-28T03:42:11;102582.81;;;5.92
27986;BMP280;15453;53.692;10.168;2023-01-28T03:44:37;102582.13;;;5.90
27986;BMP280;15453;53.692;10.168;2023-01-28T03:47:20;102583.66;;;5.93
27986;BMP280;15453;53.692;10.168;2023-01-28T03:49:48;102585.53;;;5.92
27986;BMP280;15453;53.692;10.168;2023-01-28T03:52:16;102590.81;;;5.94
27986;BMP280;15453;53.692;10.168;2023-01-28T03:54:42;102590.81;;;5.94
27986;BMP280;15453;53.692;10.168;2023-01-28T03:57:08;102582.81;;;5.92
27986;BMP280;15453;53.692;10.168;2023-01-28T03:59:33;102591.81;;;5.93
27986;BMP280;15453;53.692;10.168;2023-01-28T04:01:59;102575.66;;;5.91
27986;BMP280;15453;53.692;10.168;2023-01-28T04:04:24;102579.41;;;5.90
27986;BMP280;15453;53.692;10.168;2023-01-28T04:06:53;102576.69;;;5.90
27986;BMP280;15453;53.692;10.168;2023-01-28T04:09:20;102587.75;;;5.89
27986;BMP280;15453;53.692;10.168;2023-01-28T04:11:45;102595.25;;;5.87
27986;BMP280;15453;53.692;10.168;2023-01-28T04:14:11;102585.03;;;5.89
27986;BMP280;15453;53.692;10.168;2023-01-28T04:16:36;102585.03;;;5.89
27986;BMP280;15453;53.692;10.168;2023-01-28T04:19:02;102580.78;;;5.86
27986;BMP280;15453;53.692;10.168;2023-01-28T04:21:27;102576.38;;;5.85
27986;BMP280;15453;53.692;10.168;2023-01-28T04:23:52;102574.69;;;5.84
27986;BMP280;15453;53.692;10.168;2023-01-28T04:26:17;102579.25;;;5.84
27986;BMP280;15453;53.692;10.168;2023-01-28T04:28:43;102576.72;;;5.82
27986;BMP280;15453;53.692;10.168;2023-01-28T04:31:08;102574.34;;;5.79
27986;BMP280;15453;53.692;10.168;2023-01-28T04:33:33;102585.22;;;5.79
27986;BMP280;15453;53.692;10.168;2023-01-28T04:35:59;102584.69;;;5.76
27986;BMP280;15453;53.692;10.168;2023-01-28T04:38:24;102580.44;;;5.73
27986;BMP280;15453;53.692;10.168;2023-01-28T04:40:50;102573.31;;;5.72
27986;BMP280;15453;53.692;10.168;2023-01-28T04:43:16;102582.69;;;5.70
27986;BMP280;15453;53.692;10.168;2023-01-28T04:45:42;102584.69;;;5.68
27986;BMP280;15453;53.692;10.168;2023-01-28T04:48:07;102580.28;;;5.67
27986;BMP280;15453;53.692;10.168;2023-01-28T04:50:33;102578.78;;;5.64
27986;BMP280;15453;53.692;10.168;2023-01-28T04:52:58;102583.56;;;5.62
27986;BMP280;15453;53.692;10.168;2023-01-28T04:55:23;102579.97;;;5.62
27986;BMP280;15453;53.692;10.168;2023-01-28T04:57:49;102588.28;;;5.60
27986;BMP280;15453;53.692;10.168;2023-01-28T05:00:14;102601.22;;;5.58
27986;BMP280;15453;53.692;10.168;2023-01-28T05:02:40;102599.66;;;5.56
27986;BMP280;15453;53.692;10.168;2023-01-28T05:05:05;102593.41;;;5.55
27986;BMP280;15453;53.692;10.168;2023-01-28T05:07:33;102593.41;;;5.55
27986;BMP280;15453;53.692;10.168;2023-01-28T05:09:58;102592.88;;;5.52
27986;BMP280;15453;53.692;10.168;2023-01-28T05:12:23;102595.78;;;5.50
27986;BMP280;15453;53.692;10.168;2023-01-28T05:14:49;102586.13;;;5.48
27986;BMP280;15453;53.692;10.168;2023-01-28T05:17:14;102578.97;;;5.47
27986;BMP280;15453;53.692;10.168;2023-01-28T05:19:39;102573.91;;;5.44
27986;BMP280;15453;53.692;10.168;2023-01-28T05:22:04;102579.50;;;5.42
27986;BMP280;15453;53.692;10.168;2023-01-28T05:24:30;102568.97;;;5.39
27986;BMP280;15453;53.692;10.168;2023-01-28T05:26:55;102560.97;;;5.38
27986;BMP280;15453;53.692;10.168;2023-01-28T05:29:20;102556.91;;;5.34
27986;BMP280;15453;53.692;10.168;2023-01-28T05:31:46;102550.97;;;5.30
27986;BMP280;15453;53.692;10.168;2023-01-28T05:34:12;102553.16;;;5.27
27986;BMP280;15453;53.692;10.168;2023-01-28T05:36:37;102553.16;;;5.27
27986;BMP280;15453;53.692;10.168;2023-01-28T05:39:02;102552.16;;;5.20
27986;BMP280;15453;53.692;10.168;2023-01-28T05:41:27;102558.78;;;5.17
27986;BMP280;15453;53.692;10.168;2023-01-28T05:43:53;102549.44;;;5.12
27986;BMP280;15453;53.692;10.168;2023-01-28T05:46:18;102544.50;;;5.07
27986;BMP280;15453;53.692;10.168;2023-01-28T05:48:43;102556.72;;;5.03
27986;BMP280;15453;53.692;10.168;2023-01-28T05:51:10;102558.78;;;5.01
27986;BMP280;15453;53.692;10.168;2023-01-28T05:53:35;102552.16;;;4.96
27986;BMP280;15453;53.692;10.168;2023-01-28T05:56:00;102546.22;;;4.92
27986;BMP280;15453;53.692;10.168;2023-01-28T05:58:25;102550.13;;;4.90
27986;BMP280;15453;53.692;10.168;2023-01-28T06:00:54;102556.91;;;4.86
27986;BMP280;15453;53.692;10.168;2023-01-28T06:03:20;102549.25;;;4.81
27986;BMP280;15453;53.692;10.168;2023-01-28T06:08:11;102555.53;;;4.74
27986;BMP280;15453;53.692;10.168;2023-01-28T06:10:36;102555.53;;;4.74
27986;BMP280;15453;53.692;10.168;2023-01-28T06:13:01;102548.03;;;4.68
27986;BMP280;15453;53.692;10.168;2023-01-28T06:15:27;102547.38;;;4.66
27986;BMP280;15453;53.692;10.168;2023-01-28T06:17:52;102544.31;;;4.61
27986;BMP280;15453;53.692;10.168;2023-01-28T06:20:17;102544.31;;;4.61
27986;BMP280;15453;53.692;10.168;2023-01-28T06:22:43;102544.81;;;4.56
27986;BMP280;15453;53.692;10.168;2023-01-28T06:25:08;102545.13;;;4.53
27986;BMP280;15453;53.692;10.168;2023-01-28T06:27:34;102536.31;;;4.51
27986;BMP280;15453;53.692;10.168;2023-01-28T06:29:59;102522.06;;;4.49
27986;BMP280;15453;53.692;10.168;2023-01-28T06:32:25;102538.19;;;4.51
27986;BMP280;15453;53.692;10.168;2023-01-28T06:34:51;102538.19;;;4.51
27986;BMP280;15453;53.692;10.168;2023-01-28T06:37:16;102530.72;;;4.45
27986;BMP280;15453;53.692;10.168;2023-01-28T06:39:41;102526.13;;;4.45
27986;BMP280;15453;53.692;10.168;2023-01-28T06:42:06;102524.44;;;4.44
27986;BMP280;15453;53.692;10.168;2023-01-28T06:44:32;102548.84;;;4.44
27986;BMP280;15453;53.692;10.168;2023-01-28T06:46:57;102548.84;;;4.44
27986;BMP280;15453;53.692;10.168;2023-01-28T06:49:23;102543.94;;;4.40
27986;BMP280;15453;53.692;10.168;2023-01-28T06:51:48;102544.78;;;4.40
27986;BMP280;15453;53.692;10.168;2023-01-28T06:54:13;102538.84;;;4.37
27986;BMP280;15453;53.692;10.168;2023-01-28T06:56:39;102556.13;;;4.36
27986;BMP280;15453;53.692;10.168;2023-01-28T06:59:04;102595.09;;;4.35
27986;BMP280;15453;53.692;10.168;2023-01-28T07:01:30;102595.09;;;4.35
27986;BMP280;15453;53.692;10.168;2023-01-28T07:03:55;102578.47;;;4.30
27986;BMP280;15453;53.692;10.168;2023-01-28T07:06:20;102597.78;;;4.27
27986;BMP280;15453;53.692;10.168;2023-01-28T07:08:46;102618.81;;;4.25
27986;BMP280;15453;53.692;10.168;2023-01-28T07:11:11;102616.56;;;4.20
27986;BMP280;15453;53.692;10.168;2023-01-28T07:13:37;102618.63;;;4.18
27986;BMP280;15453;53.692;10.168;2023-01-28T07:16:02;102611.81;;;4.14
27986;BMP280;15453;53.692;10.168;2023-01-28T07:18:28;102626.41;;;4.13
27986;BMP280;15453;53.692;10.168;2023-01-28T07:20:53;102626.41;;;4.13
27986;BMP280;15453;53.692;10.168;2023-01-28T07:23:19;102630.59;;;4.08
27986;BMP280;15453;53.692;10.168;2023-01-28T07:25:44;102630.59;;;4.08
27986;BMP280;15453;53.692;10.168;2023-01-28T07:28:09;102628.03;;;4.06
27986;BMP280;15453;53.692;10.168;2023-01-28T07:30:36;102628.03;;;4.06
27986;BMP280;15453;53.692;10.168;2023-01-28T07:33:01;102626.66;;;4.02
27986;BMP280;15453;53.692;10.168;2023-01-28T07:35:27;102619.69;;;4.00
27986;BMP280;15453;53.692;10.168;2023-01-28T07:37:57;102622.41;;;4.00
27986;BMP280;15453;53.692;10.168;2023-01-28T07:40:23;102622.72;;;3.97
27986;BMP280;15453;53.692;10.168;2023-01-28T07:42:49;102628.16;;;3.97
27986;BMP280;15453;53.692;10.168;2023-01-28T07:45:14;102631.00;;;3.95
27986;BMP280;15453;53.692;10.168;2023-01-28T07:47:40;102630.19;;;3.95
27986;BMP280;15453;53.692;10.168;2023-01-28T07:50:07;102630.19;;;3.95
27986;BMP280;15453;53.692;10.168;2023-01-28T07:52:32;102634.06;;;3.92
27986;BMP280;15453;53.692;10.168;2023-01-28T07:55:03;102623.75;;;3.96
27986;BMP280;15453;53.692;10.168;2023-01-28T07:57:28;102623.75;;;3.96
27986;BMP280;15453;53.692;10.168;2023-01-28T07:59:54;102642.22;;;3.92
27986;BMP280;15453;53.692;10.168;2023-01-28T08:02:19;102642.22;;;3.92
27986;BMP280;15453;53.692;10.168;2023-01-28T08:04:45;102636.22;;;3.89
27986;BMP280;15453;53.692;10.168;2023-01-28T08:07:10;102638.13;;;3.88
27986;BMP280;15453;53.692;10.168;2023-01-28T08:09:35;102644.53;;;3.87
27986;BMP280;15453;53.692;10.168;2023-01-28T08:12:01;102653.34;;;3.89
27986;BMP280;15453;53.692;10.168;2023-01-28T08:14:27;102653.34;;;3.89
27986;BMP280;15453;53.692;10.168;2023-01-28T08:16:52;102646.56;;;3.85
27986;BMP280;15453;53.692;10.168;2023-01-28T08:19:17;102642.00;;;3.86
27986;BMP280;15453;53.692;10.168;2023-01-28T08:21:43;102645.53;;;3.86
27986;BMP280;15453;53.692;10.168;2023-01-28T08:24:08;102649.25;;;3.85
27986;BMP280;15453;53.692;10.168;2023-01-28T08:26:33;102649.13;;;3.87
27986;BMP280;15453;53.692;10.168;2023-01-28T08:28:59;102646.56;;;3.85
27986;BMP280;15453;53.692;10.168;2023-01-28T08:31:24;102645.53;;;3.86
27986;BMP280;15453;53.692;10.168;2023-01-28T08:33:49;102646.56;;;3.85
27986;BMP280;15453;53.692;10.168;2023-01-28T08:36:14;102636.38;;;3.87
27986;BMP280;15453;53.692;10.168;2023-01-28T08:38:40;102629.97;;;3.88
27986;BMP280;15453;53.692;10.168;2023-01-28T08:41:05;102639.66;;;3.91
27986;BMP280;15453;53.692;10.168;2023-01-28T08:43:30;102658.47;;;3.92
27986;BMP280;15453;53.692;10.168;2023-01-28T08:45:56;102651.38;;;3.99
27986;BMP280;15453;53.692;10.168;2023-01-28T08:48:21;102651.38;;;3.99
27986;BMP280;15453;53.692;10.168;2023-01-28T08:50:46;102667.19;;;4.04
27986;BMP280;15453;53.692;10.168;2023-01-28T08:53:14;102667.19;;;4.04
27986;BMP280;15453;53.692;10.168;2023-01-28T08:55:39;102677.38;;;4.10
27986;BMP280;15453;53.692;10.168;2023-01-28T08:58:06;102677.38;;;4.10
27986;BMP280;15453;53.692;10.168;2023-01-28T09:00:34;102675.69;;;4.09
27986;BMP280;15453;53.692;10.168;2023-01-28T09:02:59;102676.53;;;4.09
27986;BMP280;15453;53.692;10.168;2023-01-28T09:05:25;102681.81;;;4.11
27986;BMP280;15453;53.692;10.168;2023-01-28T09:07:50;102687.91;;;4.13
27986;BMP280;15453;53.692;10.168;2023-01-28T09:10:16;102687.91;;;4.13
27986;BMP280;15453;53.692;10.168;2023-01-28T09:12:42;102688.06;;;4.11
27986;BMP280;15453;53.692;10.168;2023-01-28T09:15:08;102693.03;;;4.16
27986;BMP280;15453;53.692;10.168;2023-01-28T09:17:33;102692.91;;;4.25
27986;BMP280;15453;53.692;10.168;2023-01-28T09:19:59;102692.91;;;4.25
27986;BMP280;15453;53.692;10.168;2023-01-28T09:22:24;102694.75;;;4.25
27986;BMP280;15453;53.692;10.168;2023-01-28T09:24:49;102696.13;;;4.29
27986;BMP280;15453;53.692;10.168;2023-01-28T09:27:15;102706.16;;;4.36
27986;BMP280;15453;53.692;10.168;2023-01-28T09:29:40;102706.16;;;4.36
27986;BMP280;15453;53.692;10.168;2023-01-28T09:32:05;102692.63;;;4.36
27986;BMP280;15453;53.692;10.168;2023-01-28T09:34:34;102708.78;;;4.46
27986;BMP280;15453;53.692;10.168;2023-01-28T09:36:59;102708.78;;;4.46
27986;BMP280;15453;53.692;10.168;2023-01-28T09:39:25;102716.75;;;4.47
27986;BMP280;15453;53.692;10.168;2023-01-28T09:42:21;102719.84;;;4.52
27986;BMP280;15453;53.692;10.168;2023-01-28T09:47:37;102710.88;;;4.60
27986;BMP280;15453;53.692;10.168;2023-01-28T09:50:07;102697.50;;;4.66
27986;BMP280;15453;53.692;10.168;2023-01-28T09:52:36;102672.59;;;4.71
27986;BMP280;15453;53.692;10.168;2023-01-28T09:57:42;102680.75;;;4.79
27986;BMP280;15453;53.692;10.168;2023-01-28T10:00:13;102686.22;;;4.87
27986;BMP280;15453;53.692;10.168;2023-01-28T10:02:48;102663.84;;;5.01
27986;BMP280;15453;53.692;10.168;2023-01-28T10:06:07;102663.84;;;5.01
27986;BMP280;15453;53.692;10.168;2023-01-28T10:10:49;102661.31;;;5.15
27986;BMP280;15453;53.692;10.168;2023-01-28T10:13:36;102661.31;;;5.15
27986;BMP280;15453;53.692;10.168;2023-01-28T10:16:18;102662.69;;;5.19
27986;BMP280;15453;53.692;10.168;2023-01-28T10:18:50;102659.47;;;5.24
27986;BMP280;15453;53.692;10.168;2023-01-28T10:21:21;102658.63;;;5.31
27986;BMP280;15453;53.692;10.168;2023-01-28T10:24:15;102651.50;;;5.46
27986;BMP280;15453;53.692;10.168;2023-01-28T10:26:39;102651.50;;;5.46
27986;BMP280;15453;53.692;10.168;2023-01-28T10:29:17;102640.28;;;5.49
27986;BMP280;15453;53.692;10.168;2023-01-28T10:31:51;102635.19;;;5.62
27986;BMP280;15453;53.692;10.168;2023-01-28T10:34:17;102635.19;;;5.62
27986;BMP280;15453;53.692;10.168;2023-01-28T10:36:43;102623.97;;;5.65
27986;BMP280;15453;53.692;10.168;2023-01-28T10:39:12;102629.91;;;5.69
27986;BMP280;15453;53.692;10.168;2023-01-28T10:41:38;102628.72;;;5.71
27986;BMP280;15453;53.692;10.168;2023-01-28T10:44:04;102629.38;;;5.73
27986;BMP280;15453;53.692;10.168;2023-01-28T10:46:32;102623.63;;;5.76
27986;BMP280;15453;53.692;10.168;2023-01-28T10:49:05;102610.22;;;5.83
27986;BMP280;15453;53.692;10.168;2023-01-28T10:51:40;102610.22;;;5.83
27986;BMP280;15453;53.692;10.168;2023-01-28T10:54:20;102600.00;;;5.85
27986;BMP280;15453;53.692;10.168;2023-01-28T10:56:48;102591.50;;;5.88
27986;BMP280;15453;53.692;10.168;2023-01-28T10:59:29;102597.94;;;5.95
27986;BMP280;15453;53.692;10.168;2023-01-28T11:02:19;102597.94;;;5.95
27986;BMP280;15453;53.692;10.168;2023-01-28T11:04:46;102588.25;;;5.92
27986;BMP280;15453;53.692;10.168;2023-01-28T11:07:18;102579.72;;;5.95
27986;BMP280;15453;53.692;10.168;2023-01-28T11:09:49;102567.84;;;5.96
27986;BMP280;15453;53.692;10.168;2023-01-28T11:12:23;102568.50;;;5.98
27986;BMP280;15453;53.692;10.168;2023-01-28T11:17:21;102572.91;;;5.99
27986;BMP280;15453;53.692;10.168;2023-01-28T11:19:49;102563.59;;;6.02
27986;BMP280;15453;53.692;10.168;2023-01-28T11:24:50;102554.03;;;6.06
27986;BMP280;15453;53.692;10.168;2023-01-28T11:27:17;102548.22;;;6.17
27986;BMP280;15453;53.692;10.168;2023-01-28T11:29:47;102548.22;;;6.17
27986;BMP280;15453;53.692;10.168;2023-01-28T11:32:19;102528.81;;;6.20
27986;BMP280;15453;53.692;10.168;2023-01-28T11:34:50;102535.56;;;6.32
27986;BMP280;15453;53.692;10.168;2023-01-28T11:37:19;102535.56;;;6.32
27986;BMP280;15453;53.692;10.168;2023-01-28T11:39:45;102528.91;;;6.35
27986;BMP280;15453;53.692;10.168;2023-01-28T11:42:18;102526.66;;;6.38
27986;BMP280;15453;53.692;10.168;2023-01-28T11:44:44;102525.28;;;6.42
27986;BMP280;15453;53.692;10.168;2023-01-28T11:52:42;102516.03;;;6.51
27986;BMP280;15453;53.692;10.168;2023-01-28T11:58:20;102535.78;;;6.53
27986;BMP280;15453;53.692;10.168;2023-01-28T12:01:25;102531.16;;;6.54
27986;BMP280;15453;53.692;10.168;2023-01-28T12:06:56;102515.22;;;6.51
27986;BMP280;15453;53.692;10.168;2023-01-28T12:12:10;102514.81;;;6.54
27986;BMP280;15453;53.692;10.168;2023-01-28T12:17:48;102518.75;;;6.51
27986;BMP280;15453;53.692;10.168;2023-01-28T12:20:27;102518.75;;;6.51
27986;BMP280;15453;53.692;10.168;2023-01-28T12:25:44;102512.78;;;6.56
27986;BMP280;15453;53.692;10.168;2023-01-28T12:31:13;102507.00;;;6.59
27986;BMP280;15453;53.692;10.168;2023-01-28T12:33:58;102507.00;;;6.59
27986;BMP280;15453;53.692;10.168;2023-01-28T12:36:46;102496.09;;;6.59
27986;BMP280;15453;53.692;10.168;2023-01-28T12:42:18;102481.22;;;6.69
27986;BMP280;15453;53.692;10.168;2023-01-28T12:44:51;102477.75;;;6.75
27986;BMP280;15453;53.692;10.168;2023-01-28T12:47:22;102483.59;;;6.87
27986;BMP280;15453;53.692;10.168;2023-01-28T12:50:12;102483.59;;;6.87
27986;BMP280;15453;53.692;10.168;2023-01-28T12:52:43;102463.53;;;6.88
27986;BMP280;15453;53.692;10.168;2023-01-28T12:55:17;102462.50;;;6.89
27986;BMP280;15453;53.692;10.168;2023-01-28T12:57:44;102453.09;;;6.91
27986;BMP280;15453;53.692;10.168;2023-01-28T13:00:29;102452.06;;;6.92
27986;BMP280;15453;53.692;10.168;2023-01-28T13:03:20;102445.56;;;6.93
27986;BMP280;15453;53.692;10.168;2023-01-28T13:05:51;102444.56;;;6.94
27986;BMP280;15453;53.692;10.168;2023-01-28T13:08:23;102453.22;;;6.98
27986;BMP280;15453;53.692;10.168;2023-01-28T13:10:48;102450.66;;;6.96
27986;BMP280;15453;53.692;10.168;2023-01-28T13:13:19;102446.25;;;6.95
27986;BMP280;15453;53.692;10.168;2023-01-28T13:15:45;102443.72;;;6.94
27986;BMP280;15453;53.692;10.168;2023-01-28T13:18:29;102439.50;;;6.91
27986;BMP280;15453;53.692;10.168;2023-01-28T13:20:55;102439.84;;;6.88
27986;BMP280;15453;53.692;10.168;2023-01-28T13:23:42;102441.91;;;6.86
27986;BMP280;15453;53.692;10.168;2023-01-28T13:28:41;102450.16;;;6.78
27986;BMP280;15453;53.692;10.168;2023-01-28T13:31:12;102457.66;;;6.76
27986;BMP280;15453;53.692;10.168;2023-01-28T13:34:03;102461.78;;;6.72
27986;BMP280;15453;53.692;10.168;2023-01-28T13:36:33;102474.72;;;6.70
27986;BMP280;15453;53.692;10.168;2023-01-28T13:44:01;102469.34;;;6.62
27986;BMP280;15453;53.692;10.168;2023-01-28T13:46:28;102499.72;;;6.74
27986;BMP280;15453;53.692;10.168;2023-01-28T13:48:56;102499.72;;;6.74
27986;BMP280;15453;53.692;10.168;2023-01-28T13:51:32;102495.31;;;6.73
27986;BMP280;15453;53.692;10.168;2023-01-28T13:54:15;102481.69;;;6.73
27986;BMP280;15453;53.692;10.168;2023-01-28T13:59:47;102491.38;;;6.75
27986;BMP280;15453;53.692;10.168;2023-01-28T14:08:47;102478.03;;;6.80
27986;BMP280;15453;53.692;10.168;2023-01-28T14:14:30;102478.91;;;6.81
27986;BMP280;15453;53.692;10.168;2023-01-28T14:17:23;102475.31;;;6.80
27986;BMP280;15453;53.692;10.168;2023-01-28T14:19:53;102471.38;;;6.83
27986;BMP280;15453;53.692;10.168;2023-01-28T14:22:20;102471.38;;;6.83
27986;BMP280;15453;53.692;10.168;2023-01-28T14:24:46;102469.03;;;6.80
27986;BMP280;15453;53.692;10.168;2023-01-28T14:27:26;102460.19;;;6.78
27986;BMP280;15453;53.692;10.168;2023-01-28T14:32:46;102456.81;;;6.76
27986;BMP280;15453;53.692;10.168;2023-01-28T14:35:19;102449.66;;;6.75
27986;BMP280;15453;53.692;10.168;2023-01-28T14:37:46;102441.69;;;6.73
27986;BMP280;15453;53.692;10.168;2023-01-28T14:40:14;102447.97;;;6.74
27986;BMP280;15453;53.692;10.168;2023-01-28T14:42:42;102456.81;;;6.76
27986;BMP280;15453;53.692;10.168;2023-01-28T14:47:56;102475.88;;;6.76
27986;BMP280;15453;53.692;10.168;2023-01-28T14:50:34;102483.03;;;6.77
27986;BMP280;15453;53.692;10.168;2023-01-28T14:58:07;102485.56;;;6.78
27986;BMP280;15453;53.692;10.168;2023-01-28T15:00:34;102495.41;;;6.79
27986;BMP280;15453;53.692;10.168;2023-01-28T15:03:07;102488.94;;;6.80
27986;BMP280;15453;53.692;10.168;2023-01-28T15:05:32;102481.63;;;6.81
27986;BMP280;15453;53.692;10.168;2023-01-28T15:07:58;102488.94;;;6.80
27986;BMP280;15453;53.692;10.168;2023-01-28T15:10:26;102498.78;;;6.81
27986;BMP280;15453;53.692;10.168;2023-01-28T15:12:57;102496.06;;;6.81
27986;BMP280;15453;53.692;10.168;2023-01-28T15:15:38;102497.09;;;6.80
27986;BMP280;15453;53.692;10.168;2023-01-28T15:18:19;102488.28;;;6.78
27986;BMP280;15453;53.692;10.168;2023-01-28T15:20:50;102483.03;;;6.77
27986;BMP280;15453;53.692;10.168;2023-01-28T15:23:19;102483.66;;;6.79
27986;BMP280;15453;53.692;10.168;2023-01-28T15:25:47;102483.66;;;6.79
27986;BMP280;15453;53.692;10.168;2023-01-28T15:28:24;102464.13;;;6.75
27986;BMP280;15453;53.692;10.168;2023-01-28T15:30:50;102459.91;;;6.73
27986;BMP280;15453;53.692;10.168;2023-01-28T15:33:16;102464.13;;;6.75